sensor_id;sensor_type;location;lat;lon;timestamp;P1;durP1;ratioP1;P2;durP2;ratioP2
73557;SDS011;61829;53.286;10.434;2023-11-19T00:00:46;7.38;;;3.70;;
73557;SDS011;61829;53.286;10.434;2023-11-19T00:03:32;5.18;;;3.03;;
73557;SDS011;61829;53.286;10.434;2023-11-19T00:05:59;5.45;;;2.90;;
73557;SDS011;61829;53.286;10.434;2023-11-19T00:08:25;5.28;;;2.97;;
73557;SDS011;61829;53.286;10.434;2023-11-19T00:10:50;4.95;;;3.00;;
73557;SDS011;61829;53.286;10.434;2023-11-19T00:13:16;4.97;;;2.50;;
73557;SDS011;61829;53.286;10.434;2023-11-19T00:15:42;8.05;;;3.65;;
73557;SDS011;61829;53.286;10.434;2023-11-19T00:18:08;5.30;;;2.92;;
73557;SDS011;61829;53.286;10.434;2023-11-19T00:20:33;3.90;;;2.00;;
73557;SDS011;61829;53.286;10.434;2023-11-19T00:22:59;4.43;;;2.38;;
73557;SDS011;61829;53.286;10.434;2023-11-19T00:25:27;4.82;;;2.40;;
73557;SDS011;61829;53.286;10.434;2023-11-19T00:27:53;3.80;;;2.45;;
73557;SDS011;61829;53.286;10.434;2023-11-19T00:30:19;3.83;;;2.25;;
73557;SDS011;61829;53.286;10.434;2023-11-19T00:32:45;5.97;;;2.83;;
73557;SDS011;61829;53.286;10.434;2023-11-19T00:35:10;4.28;;;2.30;;
73557;SDS011;61829;53.286;10.434;2023-11-19T00:37:37;5.45;;;2.38;;
73557;SDS011;61829;53.286;10.434;2023-11-19T00:40:03;4.53;;;2.25;;
73557;SDS011;61829;53.286;10.434;2023-11-19T00:42:31;3.53;;;2.30;;
73557;SDS011;61829;53.286;10.434;2023-11-19T00:44:56;3.92;;;2.00;;
73557;SDS011;61829;53.286;10.434;2023-11-19T00:47:23;3.88;;;2.05;;
73557;SDS011;61829;53.286;10.434;2023-11-19T00:49:49;3.08;;;1.80;;
73557;SDS011;61829;53.286;10.434;2023-11-19T00:52:16;4.72;;;2.40;;
73557;SDS011;61829;53.286;10.434;2023-11-19T00:54:42;4.43;;;2.30;;
73557;SDS011;61829;53.286;10.434;2023-11-19T00:57:08;3.60;;;1.75;;
73557;SDS011;61829;53.286;10.434;2023-11-19T00:59:34;2.85;;;1.75;;
73557;SDS011;61829;53.286;10.434;2023-11-19T01:02:00;2.55;;;1.73;;
73557;SDS011;61829;53.286;10.434;2023-11-19T01:04:33;3.55;;;1.90;;
73557;SDS011;61829;53.286;10.434;2023-11-19T01:07:03;3.85;;;1.92;;
73557;SDS011;61829;53.286;10.434;2023-11-19T01:09:32;3.22;;;1.90;;
73557;SDS011;61829;53.286;10.434;2023-11-19T01:12:00;3.15;;;1.60;;
73557;SDS011;61829;53.286;10.434;2023-11-19T01:14:27;2.63;;;1.42;;
73557;SDS011;61829;53.286;10.434;2023-11-19T01:16:53;2.85;;;2.03;;
73557;SDS011;61829;53.286;10.434;2023-11-19T01:19:20;2.50;;;1.83;;
73557;SDS011;61829;53.286;10.434;2023-11-19T01:21:48;3.08;;;1.60;;
73557;SDS011;61829;53.286;10.434;2023-11-19T01:24:14;3.70;;;1.70;;
73557;SDS011;61829;53.286;10.434;2023-11-19T01:26:40;2.50;;;1.45;;
73557;SDS011;61829;53.286;10.434;2023-11-19T01:29:13;4.35;;;1.90;;
73557;SDS011;61829;53.286;10.434;2023-11-19T01:31:43;3.13;;;1.48;;
73557;SDS011;61829;53.286;10.434;2023-11-19T01:34:11;3.88;;;1.95;;
73557;SDS011;61829;53.286;10.434;2023-11-19T01:36:37;2.45;;;1.35;;
73557;SDS011;61829;53.286;10.434;2023-11-19T01:39:04;2.60;;;1.40;;
73557;SDS011;61829;53.286;10.434;2023-11-19T01:41:36;2.45;;;1.25;;
73557;SDS011;61829;53.286;10.434;2023-11-19T01:44:05;2.60;;;1.25;;
73557;SDS011;61829;53.286;10.434;2023-11-19T01:46:31;3.35;;;1.50;;
73557;SDS011;61829;53.286;10.434;2023-11-19T01:49:00;2.63;;;1.55;;
73557;SDS011;61829;53.286;10.434;2023-11-19T01:51:28;2.78;;;1.50;;
73557;SDS011;61829;53.286;10.434;2023-11-19T01:53:54;3.15;;;1.58;;
73557;SDS011;61829;53.286;10.434;2023-11-19T01:56:22;2.92;;;1.60;;
73557;SDS011;61829;53.286;10.434;2023-11-19T01:58:49;3.65;;;1.80;;
73557;SDS011;61829;53.286;10.434;2023-11-19T02:01:16;3.25;;;1.92;;
73557;SDS011;61829;53.286;10.434;2023-11-19T02:03:42;2.90;;;1.70;;
73557;SDS011;61829;53.286;10.434;2023-11-19T02:06:08;3.50;;;2.00;;
73557;SDS011;61829;53.286;10.434;2023-11-19T02:11:01;3.78;;;2.28;;
73557;SDS011;61829;53.286;10.434;2023-11-19T02:13:27;4.07;;;2.15;;
73557;SDS011;61829;53.286;10.434;2023-11-19T02:15:54;3.25;;;2.00;;
73557;SDS011;61829;53.286;10.434;2023-11-19T02:18:27;4.72;;;2.15;;
73557;SDS011;61829;53.286;10.434;2023-11-19T02:23:20;3.20;;;1.70;;
73557;SDS011;61829;53.286;10.434;2023-11-19T02:28:41;3.38;;;1.88;;
73557;SDS011;61829;53.286;10.434;2023-11-19T02:31:08;3.55;;;2.00;;
73557;SDS011;61829;53.286;10.434;2023-11-19T02:33:35;3.95;;;2.35;;
73557;SDS011;61829;53.286;10.434;2023-11-19T02:36:03;4.38;;;2.30;;
73557;SDS011;61829;53.286;10.434;2023-11-19T02:38:29;3.85;;;2.17;;
73557;SDS011;61829;53.286;10.434;2023-11-19T02:40:56;3.63;;;1.80;;
73557;SDS011;61829;53.286;10.434;2023-11-19T02:43:22;4.10;;;2.15;;
73557;SDS011;61829;53.286;10.434;2023-11-19T02:45:49;4.22;;;2.67;;
73557;SDS011;61829;53.286;10.434;2023-11-19T02:48:16;3.50;;;2.00;;
73557;SDS011;61829;53.286;10.434;2023-11-19T02:50:42;4.13;;;2.38;;
73557;SDS011;61829;53.286;10.434;2023-11-19T02:53:10;6.05;;;2.33;;
73557;SDS011;61829;53.286;10.434;2023-11-19T02:55:36;4.40;;;2.35;;
73557;SDS011;61829;53.286;10.434;2023-11-19T02:58:04;4.47;;;2.35;;
73557;SDS011;61829;53.286;10.434;2023-11-19T03:00:45;3.92;;;1.90;;
73557;SDS011;61829;53.286;10.434;2023-11-19T03:03:22;3.50;;;2.05;;
73557;SDS011;61829;53.286;10.434;2023-11-19T03:05:54;3.55;;;2.25;;
73557;SDS011;61829;53.286;10.434;2023-11-19T03:08:20;4.47;;;2.70;;
73557;SDS011;61829;53.286;10.434;2023-11-19T03:10:46;5.38;;;2.67;;
73557;SDS011;61829;53.286;10.434;2023-11-19T03:13:12;5.32;;;2.22;;
73557;SDS011;61829;53.286;10.434;2023-11-19T03:15:45;4.20;;;2.15;;
73557;SDS011;61829;53.286;10.434;2023-11-19T03:18:11;4.95;;;2.63;;
73557;SDS011;61829;53.286;10.434;2023-11-19T03:20:37;4.68;;;2.13;;
73557;SDS011;61829;53.286;10.434;2023-11-19T03:23:03;2.95;;;2.05;;
73557;SDS011;61829;53.286;10.434;2023-11-19T03:25:29;3.90;;;2.17;;
73557;SDS011;61829;53.286;10.434;2023-11-19T03:28:02;3.47;;;2.10;;
73557;SDS011;61829;53.286;10.434;2023-11-19T03:30:32;3.47;;;1.90;;
73557;SDS011;61829;53.286;10.434;2023-11-19T03:32:58;3.40;;;2.20;;
73557;SDS011;61829;53.286;10.434;2023-11-19T03:35:25;5.32;;;1.88;;
73557;SDS011;61829;53.286;10.434;2023-11-19T03:37:51;3.35;;;1.90;;
73557;SDS011;61829;53.286;10.434;2023-11-19T03:40:17;3.50;;;2.08;;
73557;SDS011;61829;53.286;10.434;2023-11-19T03:42:44;3.63;;;2.28;;
73557;SDS011;61829;53.286;10.434;2023-11-19T03:45:11;4.10;;;2.20;;
73557;SDS011;61829;53.286;10.434;2023-11-19T03:47:37;3.30;;;2.10;;
73557;SDS011;61829;53.286;10.434;2023-11-19T03:50:04;3.13;;;2.10;;
73557;SDS011;61829;53.286;10.434;2023-11-19T03:52:30;3.70;;;1.98;;
73557;SDS011;61829;53.286;10.434;2023-11-19T03:54:56;3.67;;;1.90;;
73557;SDS011;61829;53.286;10.434;2023-11-19T03:57:25;3.00;;;2.00;;
73557;SDS011;61829;53.286;10.434;2023-11-19T03:59:50;2.80;;;1.60;;
73557;SDS011;61829;53.286;10.434;2023-11-19T04:02:17;2.22;;;1.42;;
73557;SDS011;61829;53.286;10.434;2023-11-19T04:04:42;3.20;;;1.90;;
73557;SDS011;61829;53.286;10.434;2023-11-19T04:07:08;2.67;;;1.60;;
73557;SDS011;61829;53.286;10.434;2023-11-19T04:09:34;2.40;;;1.58;;
73557;SDS011;61829;53.286;10.434;2023-11-19T04:12:01;3.40;;;1.70;;
73557;SDS011;61829;53.286;10.434;2023-11-19T04:14:26;3.05;;;1.70;;
73557;SDS011;61829;53.286;10.434;2023-11-19T04:16:53;2.50;;;1.60;;
73557;SDS011;61829;53.286;10.434;2023-11-19T04:19:19;3.22;;;1.60;;
73557;SDS011;61829;53.286;10.434;2023-11-19T04:21:45;3.08;;;1.60;;
73557;SDS011;61829;53.286;10.434;2023-11-19T04:24:11;2.83;;;1.58;;
73557;SDS011;61829;53.286;10.434;2023-11-19T04:26:41;3.40;;;1.38;;
73557;SDS011;61829;53.286;10.434;2023-11-19T04:29:13;2.17;;;1.42;;
73557;SDS011;61829;53.286;10.434;2023-11-19T04:31:40;2.67;;;1.50;;
73557;SDS011;61829;53.286;10.434;2023-11-19T04:34:07;3.00;;;1.77;;
73557;SDS011;61829;53.286;10.434;2023-11-19T04:36:33;3.95;;;1.60;;
73557;SDS011;61829;53.286;10.434;2023-11-19T04:38:59;3.33;;;1.95;;
73557;SDS011;61829;53.286;10.434;2023-11-19T04:41:26;3.63;;;2.20;;
73557;SDS011;61829;53.286;10.434;2023-11-19T04:43:55;5.20;;;2.40;;
73557;SDS011;61829;53.286;10.434;2023-11-19T04:46:21;4.22;;;2.17;;
73557;SDS011;61829;53.286;10.434;2023-11-19T04:48:47;3.85;;;2.08;;
73557;SDS011;61829;53.286;10.434;2023-11-19T04:51:13;7.07;;;2.60;;
73557;SDS011;61829;53.286;10.434;2023-11-19T04:53:38;4.03;;;2.55;;
73557;SDS011;61829;53.286;10.434;2023-11-19T04:56:07;5.78;;;2.50;;
73557;SDS011;61829;53.286;10.434;2023-11-19T04:58:34;4.60;;;2.92;;
73557;SDS011;61829;53.286;10.434;2023-11-19T05:03:27;3.88;;;2.33;;
73557;SDS011;61829;53.286;10.434;2023-11-19T05:05:53;7.28;;;3.53;;
73557;SDS011;61829;53.286;10.434;2023-11-19T05:08:19;5.35;;;3.20;;
73557;SDS011;61829;53.286;10.434;2023-11-19T05:10:45;5.80;;;3.40;;
73557;SDS011;61829;53.286;10.434;2023-11-19T05:13:10;6.88;;;4.00;;
73557;SDS011;61829;53.286;10.434;2023-11-19T05:15:36;6.85;;;4.03;;
73557;SDS011;61829;53.286;10.434;2023-11-19T05:18:03;8.98;;;4.32;;
73557;SDS011;61829;53.286;10.434;2023-11-19T05:20:30;7.50;;;4.25;;
73557;SDS011;61829;53.286;10.434;2023-11-19T05:22:56;7.57;;;4.72;;
73557;SDS011;61829;53.286;10.434;2023-11-19T05:25:22;8.20;;;4.80;;
73557;SDS011;61829;53.286;10.434;2023-11-19T05:27:48;8.18;;;4.28;;
73557;SDS011;61829;53.286;10.434;2023-11-19T05:30:13;7.03;;;4.70;;
73557;SDS011;61829;53.286;10.434;2023-11-19T05:32:39;11.00;;;4.97;;
73557;SDS011;61829;53.286;10.434;2023-11-19T05:35:06;8.55;;;4.55;;
73557;SDS011;61829;53.286;10.434;2023-11-19T05:37:33;10.88;;;5.32;;
73557;SDS011;61829;53.286;10.434;2023-11-19T05:40:01;10.20;;;5.45;;
73557;SDS011;61829;53.286;10.434;2023-11-19T05:42:29;15.13;;;5.28;;
73557;SDS011;61829;53.286;10.434;2023-11-19T05:44:55;8.90;;;5.40;;
73557;SDS011;61829;53.286;10.434;2023-11-19T05:47:20;10.27;;;5.07;;
73557;SDS011;61829;53.286;10.434;2023-11-19T05:49:46;12.60;;;6.05;;
73557;SDS011;61829;53.286;10.434;2023-11-19T05:52:12;13.80;;;6.13;;
73557;SDS011;61829;53.286;10.434;2023-11-19T05:54:38;11.90;;;5.75;;
73557;SDS011;61829;53.286;10.434;2023-11-19T05:57:04;13.32;;;6.53;;
73557;SDS011;61829;53.286;10.434;2023-11-19T05:59:30;10.45;;;5.95;;
73557;SDS011;61829;53.286;10.434;2023-11-19T06:01:58;10.77;;;6.28;;
73557;SDS011;61829;53.286;10.434;2023-11-19T06:04:24;11.40;;;6.07;;
73557;SDS011;61829;53.286;10.434;2023-11-19T06:06:50;17.90;;;7.13;;
73557;SDS011;61829;53.286;10.434;2023-11-19T06:09:15;14.88;;;6.82;;
73557;SDS011;61829;53.286;10.434;2023-11-19T06:11:43;14.07;;;7.40;;
73557;SDS011;61829;53.286;10.434;2023-11-19T06:14:10;13.65;;;6.80;;
73557;SDS011;61829;53.286;10.434;2023-11-19T06:16:37;16.50;;;7.80;;
73557;SDS011;61829;53.286;10.434;2023-11-19T06:19:05;14.50;;;7.55;;
73557;SDS011;61829;53.286;10.434;2023-11-19T06:21:30;15.63;;;7.30;;
73557;SDS011;61829;53.286;10.434;2023-11-19T06:23:56;17.17;;;7.65;;
73557;SDS011;61829;53.286;10.434;2023-11-19T06:26:23;16.48;;;7.95;;
73557;SDS011;61829;53.286;10.434;2023-11-19T06:28:49;15.50;;;7.68;;
73557;SDS011;61829;53.286;10.434;2023-11-19T06:31:15;23.25;;;10.20;;
73557;SDS011;61829;53.286;10.434;2023-11-19T06:33:41;45.42;;;16.65;;
73557;SDS011;61829;53.286;10.434;2023-11-19T06:36:08;28.17;;;11.35;;
73557;SDS011;61829;53.286;10.434;2023-11-19T06:38:34;28.20;;;10.55;;
73557;SDS011;61829;53.286;10.434;2023-11-19T06:41:00;20.50;;;9.48;;
73557;SDS011;61829;53.286;10.434;2023-11-19T06:43:27;16.65;;;7.88;;
73557;SDS011;61829;53.286;10.434;2023-11-19T06:45:56;23.23;;;7.97;;
73557;SDS011;61829;53.286;10.434;2023-11-19T06:48:22;23.25;;;7.68;;
73557;SDS011;61829;53.286;10.434;2023-11-19T06:50:48;18.48;;;7.97;;
73557;SDS011;61829;53.286;10.434;2023-11-19T06:55:40;17.38;;;7.50;;
73557;SDS011;61829;53.286;10.434;2023-11-19T06:58:06;15.93;;;8.38;;
73557;SDS011;61829;53.286;10.434;2023-11-19T07:00:32;17.95;;;7.68;;
73557;SDS011;61829;53.286;10.434;2023-11-19T07:02:58;19.02;;;7.63;;
73557;SDS011;61829;53.286;10.434;2023-11-19T07:05:25;17.80;;;6.97;;
73557;SDS011;61829;53.286;10.434;2023-11-19T07:07:52;22.77;;;7.70;;
73557;SDS011;61829;53.286;10.434;2023-11-19T07:10:17;20.20;;;7.68;;
73557;SDS011;61829;53.286;10.434;2023-11-19T07:12:44;19.80;;;7.00;;
73557;SDS011;61829;53.286;10.434;2023-11-19T07:15:10;27.33;;;8.35;;
73557;SDS011;61829;53.286;10.434;2023-11-19T07:17:36;28.45;;;9.30;;
73557;SDS011;61829;53.286;10.434;2023-11-19T07:20:01;28.92;;;7.50;;
73557;SDS011;61829;53.286;10.434;2023-11-19T07:22:28;30.50;;;8.85;;
73557;SDS011;61829;53.286;10.434;2023-11-19T07:24:55;24.20;;;7.57;;
73557;SDS011;61829;53.286;10.434;2023-11-19T07:27:21;28.17;;;8.00;;
73557;SDS011;61829;53.286;10.434;2023-11-19T07:29:47;23.92;;;7.85;;
73557;SDS011;61829;53.286;10.434;2023-11-19T07:32:13;27.35;;;7.80;;
73557;SDS011;61829;53.286;10.434;2023-11-19T07:34:39;26.05;;;7.43;;
73557;SDS011;61829;53.286;10.434;2023-11-19T07:37:05;26.42;;;7.38;;
73557;SDS011;61829;53.286;10.434;2023-11-19T07:39:31;25.98;;;7.90;;
73557;SDS011;61829;53.286;10.434;2023-11-19T07:41:58;27.88;;;7.22;;
73557;SDS011;61829;53.286;10.434;2023-11-19T07:44:23;26.08;;;8.27;;
73557;SDS011;61829;53.286;10.434;2023-11-19T07:46:50;32.40;;;7.05;;
73557;SDS011;61829;53.286;10.434;2023-11-19T07:49:15;21.83;;;6.35;;
73557;SDS011;61829;53.286;10.434;2023-11-19T07:51:41;23.10;;;6.65;;
73557;SDS011;61829;53.286;10.434;2023-11-19T07:54:07;19.48;;;6.40;;
73557;SDS011;61829;53.286;10.434;2023-11-19T07:56:34;23.02;;;6.03;;
73557;SDS011;61829;53.286;10.434;2023-11-19T07:59:01;31.85;;;6.47;;
73557;SDS011;61829;53.286;10.434;2023-11-19T08:01:28;23.55;;;5.63;;
73557;SDS011;61829;53.286;10.434;2023-11-19T08:03:53;27.67;;;6.03;;
73557;SDS011;61829;53.286;10.434;2023-11-19T08:06:19;21.38;;;4.95;;
73557;SDS011;61829;53.286;10.434;2023-11-19T08:08:45;15.02;;;4.53;;
73557;SDS011;61829;53.286;10.434;2023-11-19T08:11:13;16.30;;;4.20;;
73557;SDS011;61829;53.286;10.434;2023-11-19T08:13:40;18.98;;;4.50;;
73557;SDS011;61829;53.286;10.434;2023-11-19T08:16:06;22.25;;;4.20;;
73557;SDS011;61829;53.286;10.434;2023-11-19T08:18:32;16.88;;;4.80;;
73557;SDS011;61829;53.286;10.434;2023-11-19T08:20:58;20.02;;;4.03;;
73557;SDS011;61829;53.286;10.434;2023-11-19T08:23:45;19.00;;;3.83;;
73557;SDS011;61829;53.286;10.434;2023-11-19T08:26:11;20.40;;;3.58;;
73557;SDS011;61829;53.286;10.434;2023-11-19T08:28:37;19.63;;;3.55;;
73557;SDS011;61829;53.286;10.434;2023-11-19T08:31:03;19.40;;;4.22;;
73557;SDS011;61829;53.286;10.434;2023-11-19T08:33:29;12.48;;;3.45;;
73557;SDS011;61829;53.286;10.434;2023-11-19T08:35:55;17.48;;;3.55;;
73557;SDS011;61829;53.286;10.434;2023-11-19T08:38:22;18.42;;;3.70;;
73557;SDS011;61829;53.286;10.434;2023-11-19T08:40:48;21.25;;;3.67;;
73557;SDS011;61829;53.286;10.434;2023-11-19T08:43:13;18.80;;;3.45;;
73557;SDS011;61829;53.286;10.434;2023-11-19T08:45:39;18.67;;;3.60;;
73557;SDS011;61829;53.286;10.434;2023-11-19T08:48:05;22.52;;;4.63;;
73557;SDS011;61829;53.286;10.434;2023-11-19T08:50:31;18.42;;;4.10;;
73557;SDS011;61829;53.286;10.434;2023-11-19T08:52:57;22.55;;;4.55;;
73557;SDS011;61829;53.286;10.434;2023-11-19T08:55:25;18.58;;;3.95;;
73557;SDS011;61829;53.286;10.434;2023-11-19T08:57:51;17.40;;;3.90;;
73557;SDS011;61829;53.286;10.434;2023-11-19T09:00:38;16.60;;;3.50;;
73557;SDS011;61829;53.286;10.434;2023-11-19T09:03:03;16.67;;;4.43;;
73557;SDS011;61829;53.286;10.434;2023-11-19T09:05:32;18.73;;;4.35;;
73557;SDS011;61829;53.286;10.434;2023-11-19T09:08:00;25.55;;;4.60;;
73557;SDS011;61829;53.286;10.434;2023-11-19T09:10:26;20.00;;;4.10;;
73557;SDS011;61829;53.286;10.434;2023-11-19T09:12:52;20.75;;;3.75;;
73557;SDS011;61829;53.286;10.434;2023-11-19T09:15:18;19.95;;;4.82;;
73557;SDS011;61829;53.286;10.434;2023-11-19T09:17:44;20.10;;;3.40;;
73557;SDS011;61829;53.286;10.434;2023-11-19T09:20:11;18.88;;;4.15;;
73557;SDS011;61829;53.286;10.434;2023-11-19T09:22:40;20.60;;;3.78;;
73557;SDS011;61829;53.286;10.434;2023-11-19T09:25:06;17.75;;;3.30;;
73557;SDS011;61829;53.286;10.434;2023-11-19T09:27:32;15.32;;;3.47;;
73557;SDS011;61829;53.286;10.434;2023-11-19T09:29:58;24.27;;;4.10;;
73557;SDS011;61829;53.286;10.434;2023-11-19T09:32:24;16.60;;;3.15;;
73557;SDS011;61829;53.286;10.434;2023-11-19T09:34:50;14.95;;;3.42;;
73557;SDS011;61829;53.286;10.434;2023-11-19T09:37:16;20.38;;;3.35;;
73557;SDS011;61829;53.286;10.434;2023-11-19T09:39:45;17.95;;;2.78;;
73557;SDS011;61829;53.286;10.434;2023-11-19T09:42:14;22.20;;;4.05;;
73557;SDS011;61829;53.286;10.434;2023-11-19T09:44:40;18.90;;;3.42;;
73557;SDS011;61829;53.286;10.434;2023-11-19T09:47:08;20.13;;;3.35;;
73557;SDS011;61829;53.286;10.434;2023-11-19T09:49:35;22.58;;;4.05;;
73557;SDS011;61829;53.286;10.434;2023-11-19T09:52:01;22.35;;;3.42;;
73557;SDS011;61829;53.286;10.434;2023-11-19T09:54:28;19.05;;;3.58;;
73557;SDS011;61829;53.286;10.434;2023-11-19T09:56:57;20.27;;;3.58;;
73557;SDS011;61829;53.286;10.434;2023-11-19T09:59:29;19.50;;;3.30;;
73557;SDS011;61829;53.286;10.434;2023-11-19T10:01:56;21.63;;;3.20;;
73557;SDS011;61829;53.286;10.434;2023-11-19T10:04:22;19.00;;;3.00;;
73557;SDS011;61829;53.286;10.434;2023-11-19T10:06:52;28.95;;;3.70;;
73557;SDS011;61829;53.286;10.434;2023-11-19T10:09:18;22.52;;;3.45;;
73557;SDS011;61829;53.286;10.434;2023-11-19T10:11:44;20.15;;;3.05;;
73557;SDS011;61829;53.286;10.434;2023-11-19T10:14:10;20.20;;;3.30;;
73557;SDS011;61829;53.286;10.434;2023-11-19T10:16:35;20.70;;;3.67;;
73557;SDS011;61829;53.286;10.434;2023-11-19T10:19:03;24.08;;;3.58;;
73557;SDS011;61829;53.286;10.434;2023-11-19T10:21:29;17.20;;;3.45;;
73557;SDS011;61829;53.286;10.434;2023-11-19T10:23:58;23.60;;;3.10;;
73557;SDS011;61829;53.286;10.434;2023-11-19T10:26:25;13.05;;;2.90;;
73557;SDS011;61829;53.286;10.434;2023-11-19T10:28:52;22.15;;;3.35;;
73557;SDS011;61829;53.286;10.434;2023-11-19T10:31:19;17.92;;;3.28;;
73557;SDS011;61829;53.286;10.434;2023-11-19T10:33:52;21.40;;;3.00;;
73557;SDS011;61829;53.286;10.434;2023-11-19T10:36:19;21.50;;;3.38;;
73557;SDS011;61829;53.286;10.434;2023-11-19T10:38:54;16.80;;;2.80;;
73557;SDS011;61829;53.286;10.434;2023-11-19T10:41:28;21.25;;;3.58;;
73557;SDS011;61829;53.286;10.434;2023-11-19T10:43:55;15.27;;;3.13;;
73557;SDS011;61829;53.286;10.434;2023-11-19T10:46:21;13.55;;;2.90;;
73557;SDS011;61829;53.286;10.434;2023-11-19T10:48:49;19.80;;;3.33;;
73557;SDS011;61829;53.286;10.434;2023-11-19T10:51:18;17.52;;;2.90;;
73557;SDS011;61829;53.286;10.434;2023-11-19T10:53:49;19.13;;;3.60;;
73557;SDS011;61829;53.286;10.434;2023-11-19T10:56:18;16.77;;;3.47;;
73557;SDS011;61829;53.286;10.434;2023-11-19T10:58:49;15.02;;;3.08;;
73557;SDS011;61829;53.286;10.434;2023-11-19T11:01:18;25.90;;;4.82;;
73557;SDS011;61829;53.286;10.434;2023-11-19T11:03:48;21.17;;;4.40;;
73557;SDS011;61829;53.286;10.434;2023-11-19T11:06:18;20.23;;;3.90;;
73557;SDS011;61829;53.286;10.434;2023-11-19T11:08:45;20.38;;;3.72;;
73557;SDS011;61829;53.286;10.434;2023-11-19T11:11:13;18.75;;;3.22;;
73557;SDS011;61829;53.286;10.434;2023-11-19T11:13:43;19.77;;;2.97;;
73557;SDS011;61829;53.286;10.434;2023-11-19T11:16:10;23.27;;;4.30;;
73557;SDS011;61829;53.286;10.434;2023-11-19T11:18:40;15.32;;;2.45;;
73557;SDS011;61829;53.286;10.434;2023-11-19T11:21:10;16.52;;;3.10;;
73557;SDS011;61829;53.286;10.434;2023-11-19T11:39:33;13.98;;;2.53;;
73557;SDS011;61829;53.286;10.434;2023-11-19T11:50:08;16.23;;;2.60;;
73557;SDS011;61829;53.286;10.434;2023-11-19T11:57:52;23.42;;;3.50;;
73557;SDS011;61829;53.286;10.434;2023-11-19T12:00:29;16.05;;;3.00;;
73557;SDS011;61829;53.286;10.434;2023-11-19T12:02:55;23.67;;;3.80;;
73557;SDS011;61829;53.286;10.434;2023-11-19T12:05:29;17.27;;;2.90;;
73557;SDS011;61829;53.286;10.434;2023-11-19T12:07:55;19.98;;;3.15;;
73557;SDS011;61829;53.286;10.434;2023-11-19T12:10:24;16.52;;;2.80;;
73557;SDS011;61829;53.286;10.434;2023-11-19T12:12:52;13.45;;;2.75;;
73557;SDS011;61829;53.286;10.434;2023-11-19T12:15:18;15.68;;;2.80;;
73557;SDS011;61829;53.286;10.434;2023-11-19T12:20:18;14.15;;;2.47;;
73557;SDS011;61829;53.286;10.434;2023-11-19T12:22:46;14.82;;;2.78;;
73557;SDS011;61829;53.286;10.434;2023-11-19T12:25:14;17.30;;;2.80;;
73557;SDS011;61829;53.286;10.434;2023-11-19T12:27:48;15.40;;;3.30;;
73557;SDS011;61829;53.286;10.434;2023-11-19T12:30:25;17.00;;;2.55;;
73557;SDS011;61829;53.286;10.434;2023-11-19T12:32:51;11.80;;;2.42;;
73557;SDS011;61829;53.286;10.434;2023-11-19T12:35:21;15.88;;;3.22;;
73557;SDS011;61829;53.286;10.434;2023-11-19T12:37:48;16.40;;;3.10;;
73557;SDS011;61829;53.286;10.434;2023-11-19T12:40:19;13.48;;;2.55;;
73557;SDS011;61829;53.286;10.434;2023-11-19T12:42:47;16.25;;;2.30;;
73557;SDS011;61829;53.286;10.434;2023-11-19T12:45:17;17.88;;;2.90;;
73557;SDS011;61829;53.286;10.434;2023-11-19T12:47:44;9.13;;;2.65;;
73557;SDS011;61829;53.286;10.434;2023-11-19T12:50:12;17.35;;;2.75;;
73557;SDS011;61829;53.286;10.434;2023-11-19T12:52:38;15.68;;;3.15;;
73557;SDS011;61829;53.286;10.434;2023-11-19T12:57:53;14.13;;;2.70;;
73557;SDS011;61829;53.286;10.434;2023-11-19T13:00:22;17.73;;;2.95;;
73557;SDS011;61829;53.286;10.434;2023-11-19T13:02:52;14.82;;;3.13;;
73557;SDS011;61829;53.286;10.434;2023-11-19T13:06:00;19.13;;;2.75;;
73557;SDS011;61829;53.286;10.434;2023-11-19T13:08:11;18.10;;;4.57;;
73557;SDS011;61829;53.286;10.434;2023-11-19T13:10:51;17.92;;;4.82;;
73557;SDS011;61829;53.286;10.434;2023-11-19T13:13:20;13.57;;;2.58;;
73557;SDS011;61829;53.286;10.434;2023-11-19T13:15:48;17.63;;;3.22;;
73557;SDS011;61829;53.286;10.434;2023-11-19T13:18:15;13.05;;;2.97;;
73557;SDS011;61829;53.286;10.434;2023-11-19T13:20:42;14.75;;;3.08;;
73557;SDS011;61829;53.286;10.434;2023-11-19T13:23:10;23.77;;;4.13;;
73557;SDS011;61829;53.286;10.434;2023-11-19T13:25:36;16.55;;;4.53;;
73557;SDS011;61829;53.286;10.434;2023-11-19T13:28:02;12.50;;;3.35;;
73557;SDS011;61829;53.286;10.434;2023-11-19T13:30:28;16.65;;;3.38;;
73557;SDS011;61829;53.286;10.434;2023-11-19T13:32:54;15.90;;;2.75;;
73557;SDS011;61829;53.286;10.434;2023-11-19T13:37:50;11.05;;;2.55;;
73557;SDS011;61829;53.286;10.434;2023-11-19T13:40:17;18.58;;;3.67;;
73557;SDS011;61829;53.286;10.434;2023-11-19T13:42:44;15.93;;;2.63;;
73557;SDS011;61829;53.286;10.434;2023-11-19T13:45:11;16.17;;;2.80;;
73557;SDS011;61829;53.286;10.434;2023-11-19T13:47:41;17.92;;;3.15;;
73557;SDS011;61829;53.286;10.434;2023-11-19T13:50:12;16.63;;;3.40;;
73557;SDS011;61829;53.286;10.434;2023-11-19T13:52:39;16.35;;;3.05;;
73557;SDS011;61829;53.286;10.434;2023-11-19T13:55:07;26.08;;;4.07;;
73557;SDS011;61829;53.286;10.434;2023-11-19T13:57:35;19.90;;;3.25;;
73557;SDS011;61829;53.286;10.434;2023-11-19T14:00:02;17.17;;;3.90;;
73557;SDS011;61829;53.286;10.434;2023-11-19T14:02:35;19.75;;;3.42;;
73557;SDS011;61829;53.286;10.434;2023-11-19T14:05:04;20.63;;;4.10;;
73557;SDS011;61829;53.286;10.434;2023-11-19T14:07:31;23.20;;;3.63;;
73557;SDS011;61829;53.286;10.434;2023-11-19T14:09:56;14.82;;;3.25;;
73557;SDS011;61829;53.286;10.434;2023-11-19T14:12:22;18.73;;;3.80;;
73557;SDS011;61829;53.286;10.434;2023-11-19T14:14:48;21.20;;;3.70;;
73557;SDS011;61829;53.286;10.434;2023-11-19T14:17:14;17.00;;;3.60;;
73557;SDS011;61829;53.286;10.434;2023-11-19T14:19:41;17.73;;;3.13;;
73557;SDS011;61829;53.286;10.434;2023-11-19T14:22:07;18.15;;;3.25;;
73557;SDS011;61829;53.286;10.434;2023-11-19T14:24:37;20.33;;;3.40;;
73557;SDS011;61829;53.286;10.434;2023-11-19T14:27:03;20.98;;;3.15;;
73557;SDS011;61829;53.286;10.434;2023-11-19T14:29:29;19.40;;;3.70;;
73557;SDS011;61829;53.286;10.434;2023-11-19T14:31:56;21.52;;;3.67;;
73557;SDS011;61829;53.286;10.434;2023-11-19T14:34:22;15.63;;;2.92;;
73557;SDS011;61829;53.286;10.434;2023-11-19T14:36:48;15.45;;;2.70;;
73557;SDS011;61829;53.286;10.434;2023-11-19T14:39:14;17.35;;;2.95;;
73557;SDS011;61829;53.286;10.434;2023-11-19T14:41:40;16.60;;;3.22;;
73557;SDS011;61829;53.286;10.434;2023-11-19T14:44:08;17.77;;;3.65;;
73557;SDS011;61829;53.286;10.434;2023-11-19T14:49:00;20.38;;;4.32;;
73557;SDS011;61829;53.286;10.434;2023-11-19T14:51:26;12.48;;;3.05;;
73557;SDS011;61829;53.286;10.434;2023-11-19T14:53:52;12.88;;;2.58;;
73557;SDS011;61829;53.286;10.434;2023-11-19T14:56:18;18.15;;;3.15;;
73557;SDS011;61829;53.286;10.434;2023-11-19T14:58:44;15.98;;;2.92;;
73557;SDS011;61829;53.286;10.434;2023-11-19T15:01:13;10.23;;;2.17;;
73557;SDS011;61829;53.286;10.434;2023-11-19T15:03:40;7.45;;;2.45;;
73557;SDS011;61829;53.286;10.434;2023-11-19T15:06:06;8.75;;;2.03;;
73557;SDS011;61829;53.286;10.434;2023-11-19T15:08:32;9.65;;;2.35;;
73557;SDS011;61829;53.286;10.434;2023-11-19T15:10:59;10.73;;;2.60;;
73557;SDS011;61829;53.286;10.434;2023-11-19T15:13:27;12.63;;;2.58;;
73557;SDS011;61829;53.286;10.434;2023-11-19T15:15:53;10.45;;;2.10;;
73557;SDS011;61829;53.286;10.434;2023-11-19T15:18:20;9.70;;;2.15;;